Time;durP1;ratioP1;P1;durP2;ratioP2;P2;SDS_P1;SDS_P2;PMS_P1;PMS_P2;Temp;Humidity;BMP_temperature;BMP_pressure;BME280_temperature;BME280_humidity;BME280_pressure;Samples;Min_cycle;Max_cycle;Signal;HPM_P1;HPM_P2
2022/03/27 00:00:40;;;;;;;20.80;14.57;;;9.00;62.40;;;;;;5009440;28;20203;-70
2022/03/27 00:03:06;;;;;;;29.47;14.70;;;9.00;65.00;;;;;;5008752;28;20179;-66
2022/03/27 00:05:32;;;;;;;23.23;13.80;;;8.90;67.00;;;;;;5006176;28;20449;-69
2022/03/27 00:07:58;;;;;;;18.50;14.07;;;8.90;66.70;;;;;;5003056;28;20975;-66
2022/03/27 00:10:24;;;;;;;20.00;13.83;;;8.90;68.00;;;;;;4999531;28;20476;-68
2022/03/27 00:12:50;;;;;;;19.70;14.17;;;8.90;68.60;;;;;;5006780;28;20437;-66
2022/03/27 00:15:15;;;;;;;27.97;14.93;;;8.90;69.20;;;;;;5006314;28;20441;-68
2022/03/27 00:17:41;;;;;;;20.67;12.93;;;8.90;70.10;;;;;;5004134;28;20218;-68
2022/03/27 00:20:12;;;;;;;26.90;14.47;;;8.70;71.90;;;;;;5009686;28;20179;-69
2022/03/27 00:22:38;;;;;;;21.57;14.77;;;8.60;74.30;;;;;;5008730;28;20203;-68
2022/03/27 00:25:06;;;;;;;32.27;15.40;;;8.60;75.20;;;;;;4999629;28;20887;-68
2022/03/27 00:27:33;;;;;;;23.37;13.33;;;8.40;76.70;;;;;;5008771;28;20524;-68
2022/03/27 00:29:59;;;;;;;22.87;12.83;;;8.30;79.00;;;;;;5001287;28;20445;-68
2022/03/27 00:32:24;;;;;;;31.80;14.63;;;8.30;79.00;;;;;;5002571;28;20469;-68
2022/03/27 00:34:50;;;;;;;23.47;13.90;;;8.30;78.40;;;;;;5011057;28;20448;-69
2022/03/27 00:37:16;;;;;;;23.53;13.90;;;8.40;80.30;;;;;;5009372;28;20202;-69
2022/03/27 00:39:42;;;;;;;20.90;13.50;;;8.50;80.30;;;;;;5010547;28;20229;-69
2022/03/27 00:42:08;;;;;;;20.37;13.23;;;8.50;82.50;;;;;;5009920;28;20462;-69
2022/03/27 00:44:34;;;;;;;23.47;13.50;;;8.50;82.70;;;;;;5010467;28;20183;-68
2022/03/27 00:47:01;;;;;;;23.90;13.90;;;8.40;85.20;;;;;;5008896;28;20179;-68
2022/03/27 00:49:26;;;;;;;22.27;13.20;;;8.30;85.90;;;;;;5009821;28;20537;-69
2022/03/27 00:51:52;;;;;;;20.00;12.83;;;8.40;85.60;;;;;;4973364;28;1036808;-68
2022/03/27 00:54:17;;;;;;;26.20;14.37;;;8.40;85.40;;;;;;5005313;28;20207;-68
2022/03/27 00:56:43;;;;;;;22.90;13.00;;;8.40;86.00;;;;;;5028508;28;20650;-68
2022/03/27 00:59:09;;;;;;;20.90;12.90;;;8.40;85.60;;;;;;5009908;28;20217;-68
2022/03/27 01:01:38;;;;;;;28.40;14.60;;;8.40;86.70;;;;;;5005192;28;20210;-68
2022/03/27 01:04:05;;;;;;;21.50;12.80;;;8.40;87.60;;;;;;5011716;28;20257;-68
2022/03/27 01:06:43;;;;;;;22.43;13.43;;;8.30;87.50;;;;;;5013389;28;21023;-69
2022/03/27 01:12:18;;;;;;;20.37;12.70;;;8.30;90.50;;;;;;5007506;28;20460;-68
2022/03/27 01:14:44;;;;;;;25.03;13.00;;;8.20;90.90;;;;;;5011285;28;20846;-68
2022/03/27 01:17:12;;;;;;;24.67;14.57;;;8.10;91.50;;;;;;5013925;28;20468;-68
2022/03/27 01:19:44;;;;;;;24.13;13.70;;;8.00;92.60;;;;;;5007226;28;20496;-68
2022/03/27 01:22:11;;;;;;;19.40;12.73;;;7.90;93.30;;;;;;5007264;28;20834;-68
2022/03/27 01:24:36;;;;;;;21.27;13.10;;;7.80;93.50;;;;;;5012965;28;20445;-68
2022/03/27 01:27:03;;;;;;;23.20;13.77;;;7.80;94.60;;;;;;5012731;28;20448;-68
2022/03/27 01:29:29;;;;;;;26.80;14.10;;;7.80;94.30;;;;;;5004789;28;20193;-68
2022/03/27 01:31:55;;;;;;;24.27;13.67;;;7.80;94.10;;;;;;5011965;28;20462;-68
2022/03/27 01:34:21;;;;;;;19.73;14.87;;;7.80;94.70;;;;;;5011698;28;20191;-68
2022/03/27 01:36:46;;;;;;;24.27;14.47;;;7.80;95.50;;;;;;5005873;28;20476;-68
2022/03/27 01:39:14;;;;;;;23.33;13.77;;;7.70;95.50;;;;;;5010028;28;20600;-68
2022/03/27 01:41:41;;;;;;;19.37;13.70;;;7.60;97.00;;;;;;5011950;28;20575;-68
2022/03/27 01:44:09;;;;;;;22.20;13.47;;;7.60;97.30;;;;;;5007648;28;20557;-68
2022/03/27 01:46:37;;;;;;;23.40;13.10;;;7.60;97.30;;;;;;5011730;28;20499;-68
2022/03/27 01:49:06;;;;;;;24.37;16.47;;;7.60;97.40;;;;;;5008068;28;20454;-68
2022/03/27 01:51:33;;;;;;;33.53;15.10;;;7.70;97.00;;;;;;5011587;28;20827;-68
2022/03/27 01:53:59;;;;;;;19.53;14.30;;;7.70;97.80;;;;;;5004406;28;20940;-68
2022/03/27 01:56:24;;;;;;;25.10;13.50;;;7.70;97.70;;;;;;5010862;28;20552;-68
2022/03/27 01:58:51;;;;;;;22.70;14.70;;;7.70;97.60;;;;;;5010446;28;20560;-69
2022/03/27 02:01:19;;;;;;;24.07;13.57;;;7.60;97.30;;;;;;5011395;28;20206;-68
2022/03/27 02:03:45;;;;;;;24.20;13.57;;;7.50;98.30;;;;;;5009618;28;20527;-68
2022/03/27 02:06:12;;;;;;;22.50;14.47;;;7.50;99.00;;;;;;5007138;28;20500;-67
2022/03/27 02:08:37;;;;;;;34.42;14.90;;;7.50;98.70;;;;;;5011494;28;20801;-68
2022/03/27 02:11:03;;;;;;;25.30;16.77;;;7.40;99.00;;;;;;5005707;28;20207;-68
2022/03/27 02:13:29;;;;;;;22.60;15.87;;;7.40;99.30;;;;;;5010442;28;20285;-68
2022/03/27 02:15:57;;;;;;;27.33;14.60;;;7.40;99.80;;;;;;5004358;28;20437;-68
2022/03/27 02:18:28;;;;;;;26.87;14.73;;;7.30;99.70;;;;;;5010766;28;20927;-68
2022/03/27 02:20:54;;;;;;;19.27;13.83;;;7.20;99.90;;;;;;5007829;28;20556;-68
2022/03/27 02:23:21;;;;;;;25.50;14.60;;;7.20;99.90;;;;;;5004606;28;20446;-68
2022/03/27 02:25:47;;;;;;;23.40;13.77;;;7.20;99.90;;;;;;5011003;28;20461;-68
2022/03/27 02:28:13;;;;;;;27.00;14.60;;;7.30;99.90;;;;;;5005633;28;20472;-68
2022/03/27 02:30:38;;;;;;;21.77;13.93;;;7.30;99.90;;;;;;5006560;28;20203;-68
2022/03/27 02:33:04;;;;;;;22.77;14.07;;;7.30;99.90;;;;;;5003061;28;20596;-68
2022/03/27 02:35:29;;;;;;;23.03;14.17;;;7.30;99.90;;;;;;5006727;28;20191;-68
2022/03/27 02:37:55;;;;;;;27.70;17.30;;;7.30;99.90;;;;;;5008922;28;20285;-68
2022/03/27 02:40:20;;;;;;;25.37;15.87;;;7.30;99.90;;;;;;5009174;28;20183;-68
2022/03/27 02:42:46;;;;;;;28.60;18.20;;;7.20;99.90;;;;;;5008537;28;20186;-68
2022/03/27 02:45:11;;;;;;;18.77;14.70;;;7.10;99.90;;;;;;5010078;28;20237;-68
2022/03/27 02:47:37;;;;;;;35.90;15.27;;;7.10;99.90;;;;;;5008825;28;20179;-68
2022/03/27 02:50:05;;;;;;;26.13;15.33;;;7.10;99.90;;;;;;5008138;28;20654;-68
2022/03/27 02:52:31;;;;;;;23.57;14.73;;;7.10;99.90;;;;;;5009589;28;20329;-68
2022/03/27 02:54:58;;;;;;;25.17;14.47;;;7.10;99.90;;;;;;5010996;28;20434;-69
2022/03/27 02:57:24;;;;;;;21.60;14.10;;;7.10;99.90;;;;;;5008579;28;20244;-68
2022/03/27 02:59:52;;;;;;;28.67;15.10;;;7.00;99.90;;;;;;5009915;28;20434;-68
2022/03/27 03:02:21;;;;;;;26.17;15.60;;;7.00;99.90;;;;;;5002085;28;20200;-68
2022/03/27 03:04:47;;;;;;;23.30;14.40;;;6.70;99.90;;;;;;5005909;28;20441;-68
2022/03/27 03:07:14;;;;;;;20.27;13.60;;;6.60;99.90;;;;;;5009030;28;20810;-68
2022/03/27 03:09:41;;;;;;;23.50;14.60;;;6.50;99.90;;;;;;5007261;28;20267;-68
2022/03/27 03:12:07;;;;;;;24.00;15.33;;;6.50;99.90;;;;;;5006591;28;20453;-68
2022/03/27 03:14:33;;;;;;;20.90;15.07;;;6.50;99.90;;;;;;5010466;28;20524;-68
2022/03/27 03:17:01;;;;;;;25.77;16.77;;;6.40;99.90;;;;;;5000473;28;20458;-68
2022/03/27 03:19:27;;;;;;;23.73;14.47;;;6.50;99.90;;;;;;5002977;28;20441;-68
2022/03/27 03:21:52;;;;;;;24.30;13.50;;;6.50;99.90;;;;;;5006652;28;20465;-68
2022/03/27 03:24:18;;;;;;;26.50;14.50;;;6.40;99.90;;;;;;5008492;28;20195;-68
2022/03/27 03:26:44;;;;;;;22.40;13.90;;;6.40;99.90;;;;;;5007799;28;20261;-68
2022/03/27 03:29:09;;;;;;;19.60;14.13;;;6.40;99.90;;;;;;5009345;28;20179;-68
2022/03/27 03:31:35;;;;;;;25.90;14.87;;;6.50;99.90;;;;;;5009401;28;20199;-68
2022/03/27 03:34:00;;;;;;;31.90;15.30;;;6.50;99.90;;;;;;5006002;28;20186;-67
2022/03/27 03:36:26;;;;;;;24.03;14.80;;;6.50;99.90;;;;;;5008820;28;20320;-67
2022/03/27 03:38:51;;;;;;;24.00;14.50;;;6.50;99.90;;;;;;5009336;28;20252;-68
2022/03/27 03:41:18;;;;;;;20.40;14.00;;;6.40;99.90;;;;;;5003995;28;20581;-68
2022/03/27 03:43:43;;;;;;;23.27;14.30;;;6.50;99.90;;;;;;5009300;28;20183;-68
2022/03/27 03:46:09;;;;;;;23.60;13.00;;;6.50;99.90;;;;;;5008480;28;20441;-67
2022/03/27 03:48:34;;;;;;;23.50;14.20;;;6.60;99.90;;;;;;5008706;28;20215;-67
2022/03/27 03:51:00;;;;;;;25.57;14.03;;;6.50;99.90;;;;;;5009598;28;20605;-68
2022/03/27 03:53:26;;;;;;;23.83;13.20;;;6.60;99.90;;;;;;5009175;28;20221;-68
2022/03/27 03:55:52;;;;;;;27.23;12.23;;;6.50;99.90;;;;;;5003760;28;20188;-67
2022/03/27 03:58:17;;;;;;;20.87;14.23;;;6.60;99.90;;;;;;5007859;28;20474;-67
2022/03/27 04:00:43;;;;;;;18.17;11.97;;;6.60;99.90;;;;;;5006240;28;20575;-68
2022/03/27 04:03:09;;;;;;;19.10;13.07;;;6.60;99.90;;;;;;5008488;28;20179;-68
2022/03/27 04:05:35;;;;;;;21.93;14.43;;;6.50;99.90;;;;;;5007557;28;20183;-68
2022/03/27 04:08:01;;;;;;;22.97;13.83;;;6.40;99.90;;;;;;5008816;28;20870;-68
2022/03/27 04:10:27;;;;;;;19.67;12.50;;;6.40;99.90;;;;;;5005891;28;20190;-68
2022/03/27 04:12:53;;;;;;;25.83;13.70;;;6.20;99.90;;;;;;5008036;28;20579;-68
2022/03/27 04:15:18;;;;;;;21.40;12.50;;;6.30;99.90;;;;;;5008959;28;20437;-68
2022/03/27 04:17:45;;;;;;;29.47;14.00;;;6.30;99.90;;;;;;5009595;28;20209;-68
2022/03/27 04:20:12;;;;;;;19.13;12.40;;;6.20;99.90;;;;;;5007811;28;20179;-67
2022/03/27 04:22:39;;;;;;;18.27;13.00;;;6.30;99.90;;;;;;5013990;28;20453;-68
2022/03/27 04:25:05;;;;;;;24.30;15.23;;;6.30;99.90;;;;;;5011070;28;20793;-67
2022/03/27 04:27:30;;;;;;;23.27;13.43;;;6.40;99.90;;;;;;5013211;28;20437;-68
2022/03/27 04:29:56;;;;;;;23.60;13.57;;;6.40;99.90;;;;;;5012926;28;20441;-68
2022/03/27 04:32:21;;;;;;;21.20;12.23;;;6.40;99.90;;;;;;5010606;28;20209;-68
2022/03/27 04:34:50;;;;;;;23.90;13.80;;;6.50;99.90;;;;;;5012122;28;20664;-68
2022/03/27 04:37:16;;;;;;;23.70;14.00;;;6.50;99.90;;;;;;5013184;28;20198;-68
2022/03/27 04:39:42;;;;;;;20.37;13.50;;;6.30;99.90;;;;;;5012485;28;20440;-68
2022/03/27 04:42:09;;;;;;;20.33;14.40;;;6.30;99.90;;;;;;5011222;28;20469;-68
2022/03/27 04:44:34;;;;;;;23.20;13.23;;;6.30;99.90;;;;;;5013777;28;20186;-68
2022/03/27 04:47:00;;;;;;;28.50;13.23;;;6.30;99.90;;;;;;5011434;28;20951;-67
2022/03/27 04:49:25;;;;;;;22.23;13.70;;;6.20;99.90;;;;;;5008606;28;20202;-68
2022/03/27 04:51:51;;;;;;;27.40;15.77;;;6.10;99.90;;;;;;5011590;28;20222;-67
2022/03/27 04:54:16;;;;;;;25.07;15.40;;;6.10;99.90;;;;;;5007807;28;20183;-67
2022/03/27 04:56:42;;;;;;;27.80;14.87;;;6.10;99.90;;;;;;5009496;28;20187;-68
2022/03/27 04:59:07;;;;;;;20.10;13.90;;;6.10;99.90;;;;;;5010385;28;20202;-68
2022/03/27 05:01:33;;;;;;;23.70;16.17;;;6.00;99.90;;;;;;5012532;28;20265;-68
2022/03/27 05:03:59;;;;;;;29.60;15.93;;;6.00;99.90;;;;;;5012302;28;20190;-68
2022/03/27 05:06:24;;;;;;;25.50;14.93;;;5.90;99.90;;;;;;5009226;28;20189;-68
2022/03/27 05:08:51;;;;;;;29.57;17.90;;;5.90;99.90;;;;;;5010498;28;20189;-68
2022/03/27 05:11:17;;;;;;;30.50;16.50;;;5.80;99.90;;;;;;5012101;28;20210;-68
2022/03/27 05:13:42;;;;;;;32.23;18.77;;;5.90;99.90;;;;;;5008742;28;20830;-68
2022/03/27 05:16:08;;;;;;;24.10;16.30;;;5.80;99.90;;;;;;5011539;28;20199;-68
2022/03/27 05:18:34;;;;;;;26.30;17.57;;;5.70;99.90;;;;;;5009494;28;21212;-68
2022/03/27 05:20:59;;;;;;;33.83;19.33;;;5.60;99.90;;;;;;5011476;28;20206;-68
2022/03/27 05:23:25;;;;;;;25.33;18.23;;;5.70;99.90;;;;;;5006359;28;20309;-68
2022/03/27 05:25:52;;;;;;;27.07;17.80;;;5.70;99.90;;;;;;5012799;28;20661;-68
2022/03/27 05:28:19;;;;;;;30.43;16.40;;;5.60;99.90;;;;;;5013334;28;20182;-68
2022/03/27 05:30:46;;;;;;;23.67;16.00;;;5.60;99.90;;;;;;5012618;28;20964;-67
2022/03/27 05:33:12;;;;;;;25.47;13.50;;;5.60;99.90;;;;;;5006010;28;20484;-68
2022/03/27 05:35:38;;;;;;;27.87;15.50;;;5.60;99.90;;;;;;5004685;28;20527;-68
2022/03/27 05:38:04;;;;;;;23.27;16.07;;;5.70;99.90;;;;;;5010249;28;20214;-68
2022/03/27 05:40:30;;;;;;;21.50;15.27;;;5.80;99.90;;;;;;5011713;28;20257;-68
2022/03/27 05:42:55;;;;;;;21.10;12.53;;;6.00;99.90;;;;;;5008032;28;20449;-68
2022/03/27 05:45:22;;;;;;;20.10;14.30;;;6.10;99.90;;;;;;5011803;28;20174;-68
2022/03/27 05:47:47;;;;;;;24.30;13.90;;;6.20;99.90;;;;;;5010552;28;20193;-68
2022/03/27 05:50:15;;;;;;;23.20;14.10;;;6.40;99.90;;;;;;5009950;28;20525;-68
2022/03/27 05:52:42;;;;;;;17.73;13.83;;;6.50;99.90;;;;;;5009088;28;20233;-68
2022/03/27 05:55:08;;;;;;;29.20;15.63;;;6.60;99.90;;;;;;5004311;28;20438;-68
2022/03/27 05:57:33;;;;;;;29.77;15.00;;;6.70;99.90;;;;;;5014114;28;20465;-68
2022/03/27 05:59:59;;;;;;;23.17;14.83;;;6.90;99.90;;;;;;5012462;28;20488;-68
2022/03/27 06:02:24;;;;;;;24.17;16.17;;;6.90;99.90;;;;;;5011113;28;20202;-68
2022/03/27 06:04:51;;;;;;;27.13;15.80;;;6.80;99.90;;;;;;5012617;28;20187;-68
2022/03/27 06:07:16;;;;;;;22.30;13.53;;;6.90;99.90;;;;;;5012685;28;20202;-68
2022/03/27 06:09:42;;;;;;;26.07;15.47;;;7.10;99.90;;;;;;5008730;28;20968;-68
2022/03/27 06:12:08;;;;;;;21.17;13.33;;;7.20;99.90;;;;;;5013722;28;20222;-68
2022/03/27 06:14:34;;;;;;;25.03;14.17;;;7.30;99.90;;;;;;5013798;28;20195;-68
2022/03/27 06:16:59;;;;;;;25.70;14.70;;;7.50;99.90;;;;;;5011298;28;20995;-68
2022/03/27 06:19:26;;;;;;;28.20;16.03;;;7.60;99.90;;;;;;5011884;28;20562;-68
2022/03/27 06:21:52;;;;;;;23.63;15.37;;;7.80;99.90;;;;;;5010064;28;20624;-68
2022/03/27 06:24:18;;;;;;;27.60;15.57;;;7.90;99.90;;;;;;5010099;28;21071;-68
2022/03/27 06:26:43;;;;;;;22.00;15.93;;;8.00;99.90;;;;;;5011059;28;20433;-68
2022/03/27 06:29:09;;;;;;;21.33;14.80;;;8.10;99.90;;;;;;5008927;28;20191;-68
2022/03/27 06:31:36;;;;;;;23.97;14.37;;;8.20;99.90;;;;;;5007071;28;20206;-68
2022/03/27 06:34:01;;;;;;;25.60;14.17;;;8.40;99.90;;;;;;5011241;28;20265;-68
2022/03/27 06:36:27;;;;;;;24.90;17.97;;;8.60;99.90;;;;;;5011835;28;20848;-69
2022/03/27 06:38:52;;;;;;;32.17;15.20;;;8.80;99.90;;;;;;5010796;28;20642;-68
2022/03/27 06:41:18;;;;;;;23.90;15.70;;;9.10;99.90;;;;;;5009933;28;20203;-68
2022/03/27 06:43:43;;;;;;;24.50;14.27;;;9.30;99.90;;;;;;5007566;28;20181;-68
2022/03/27 06:46:13;;;;;;;22.60;15.10;;;9.50;99.90;;;;;;5011190;28;20357;-68
2022/03/27 06:48:39;;;;;;;20.37;14.70;;;9.70;99.90;;;;;;5011183;28;20278;-68
2022/03/27 06:51:04;;;;;;;18.17;14.53;;;10.00;96.90;;;;;;5011575;28;21004;-68
2022/03/27 06:53:30;;;;;;;23.00;14.67;;;10.20;97.00;;;;;;5011583;28;20183;-68
2022/03/27 06:55:55;;;;;;;21.80;14.80;;;10.40;96.40;;;;;;5010674;28;20183;-68
2022/03/27 06:58:21;;;;;;;30.93;17.83;;;10.60;94.70;;;;;;5008556;28;20207;-68
2022/03/27 07:03:31;;;;;;;24.80;16.37;;;11.10;93.30;;;;;;5011401;28;20680;-68
2022/03/27 07:05:56;;;;;;;25.37;17.20;;;11.40;92.40;;;;;;5010692;28;20470;-68
2022/03/27 07:08:22;;;;;;;28.20;16.23;;;11.70;90.70;;;;;;5009938;28;20183;-68
2022/03/27 07:10:49;;;;;;;28.07;16.87;;;11.80;90.60;;;;;;5010436;28;20226;-68
2022/03/27 07:13:17;;;;;;;30.00;15.80;;;12.00;90.70;;;;;;5011227;28;20179;-68
2022/03/27 07:15:45;;;;;;;23.23;15.87;;;12.10;90.50;;;;;;5004231;28;20530;-68
2022/03/27 07:18:11;;;;;;;24.37;15.93;;;12.40;89.50;;;;;;5007632;28;20497;-66
2022/03/27 07:20:42;;;;;;;26.53;16.43;;;12.60;88.30;;;;;;5011072;28;20948;-66
2022/03/27 07:23:09;;;;;;;21.63;16.90;;;12.90;87.00;;;;;;5010454;28;20433;-66
2022/03/27 07:25:37;;;;;;;25.83;18.00;;;13.30;84.90;;;;;;5010354;28;20782;-66
2022/03/27 07:28:04;;;;;;;26.27;17.53;;;13.50;82.10;;;;;;5023989;28;21019;-68
2022/03/27 07:30:30;;;;;;;25.97;17.37;;;13.60;80.90;;;;;;5002898;28;20967;-68
2022/03/27 07:32:57;;;;;;;20.63;15.37;;;13.70;80.20;;;;;;5004173;28;20430;-66
2022/03/27 07:35:25;;;;;;;25.73;17.33;;;13.70;78.90;;;;;;5010666;28;20179;-66
2022/03/27 07:37:52;;;;;;;22.33;16.60;;;13.80;80.10;;;;;;5010183;28;20484;-66
2022/03/27 07:40:18;;;;;;;20.00;14.73;;;14.10;77.80;;;;;;5006748;28;20437;-66
2022/03/27 07:42:49;;;;;;;24.53;15.80;;;14.00;76.30;;;;;;5005776;28;20466;-66
2022/03/27 07:45:19;;;;;;;28.07;15.67;;;14.00;77.40;;;;;;5009506;28;20464;-65
2022/03/27 07:47:45;;;;;;;22.30;14.93;;;14.40;76.40;;;;;;5009921;28;20587;-66
2022/03/27 07:50:11;;;;;;;21.57;15.10;;;14.60;74.50;;;;;;5007603;28;20461;-66
2022/03/27 07:52:38;;;;;;;22.47;15.87;;;14.70;74.40;;;;;;5009838;28;20829;-66
2022/03/27 07:55:05;;;;;;;19.60;15.00;;;15.00;73.60;;;;;;5009939;28;20472;-65
2022/03/27 07:57:31;;;;;;;21.10;14.83;;;15.40;72.00;;;;;;5012307;28;20879;-66
2022/03/27 07:59:57;;;;;;;19.10;15.13;;;15.40;69.40;;;;;;5012402;28;20440;-65
2022/03/27 08:02:22;;;;;;;25.37;17.07;;;15.50;69.70;;;;;;5013677;28;20195;-67
2022/03/27 08:04:48;;;;;;;21.23;17.37;;;15.60;68.50;;;;;;5007511;28;20636;-68
2022/03/27 08:07:14;;;;;;;21.37;17.03;;;15.50;68.20;;;;;;5010483;28;20180;-70
2022/03/27 08:09:41;;;;;;;25.57;17.10;;;15.60;68.10;;;;;;5003584;28;20190;-69
2022/03/27 08:12:08;;;;;;;24.23;17.57;;;15.60;66.60;;;;;;5010784;28;20469;-65
2022/03/27 08:14:38;;;;;;;23.17;17.33;;;15.80;65.80;;;;;;5013600;28;20441;-66
2022/03/27 08:17:05;;;;;;;25.40;18.37;;;15.60;65.70;;;;;;5010463;28;21002;-66
2022/03/27 08:19:30;;;;;;;26.40;17.60;;;15.70;65.70;;;;;;5011989;28;20452;-66
2022/03/27 08:21:56;;;;;;;21.97;17.40;;;15.90;64.80;;;;;;5011989;28;20548;-66
2022/03/27 08:24:22;;;;;;;25.33;17.60;;;16.00;64.90;;;;;;5007689;28;20572;-67
2022/03/27 08:26:59;;;;;;;24.60;19.03;;;16.00;64.80;;;;;;5009770;28;20182;-67
2022/03/27 08:29:27;;;;;;;23.63;17.47;;;16.30;64.60;;;;;;5007599;28;20954;-66
2022/03/27 08:31:53;;;;;;;24.60;17.87;;;16.50;62.70;;;;;;5011443;28;20502;-66
2022/03/27 08:34:20;;;;;;;26.03;17.07;;;16.50;63.10;;;;;;5013562;28;20441;-66
2022/03/27 08:36:46;;;;;;;22.33;18.60;;;16.70;61.90;;;;;;5012701;28;20440;-66
2022/03/27 08:39:12;;;;;;;21.07;16.47;;;16.70;61.20;;;;;;5012160;28;21899;-66
2022/03/27 08:41:43;;;;;;;24.37;16.03;;;16.60;60.90;;;;;;5009077;28;20823;-66
2022/03/27 08:44:14;;;;;;;17.97;15.63;;;16.70;61.00;;;;;;5012827;28;20223;-66
2022/03/27 08:46:41;;;;;;;19.03;16.60;;;16.70;60.90;;;;;;5013225;28;20426;-66
2022/03/27 08:49:15;;;;;;;21.40;15.70;;;17.20;60.10;;;;;;5010279;28;20452;-66
2022/03/27 08:52:01;;;;;;;23.90;18.10;;;17.70;59.50;;;;;;5009981;28;20473;-67
2022/03/27 08:54:39;;;;;;;20.00;16.53;;;17.90;58.40;;;;;;5010368;28;20441;-65
2022/03/27 08:57:19;;;;;;;20.00;16.47;;;18.70;57.30;;;;;;5010044;28;20489;-66
2022/03/27 08:59:46;;;;;;;27.47;19.70;;;19.20;56.60;;;;;;5011379;28;20429;-65
2022/03/27 09:02:14;;;;;;;19.87;15.50;;;19.30;55.70;;;;;;5011798;28;21013;-66
2022/03/27 09:04:41;;;;;;;22.50;17.70;;;20.20;54.20;;;;;;5013343;28;20434;-65
2022/03/27 09:07:07;;;;;;;20.47;16.60;;;20.60;52.40;;;;;;5011245;28;20497;-66
2022/03/27 09:09:34;;;;;;;19.97;15.60;;;20.80;51.70;;;;;;5013091;28;20433;-65
2022/03/27 09:12:03;;;;;;;18.07;15.60;;;21.40;50.70;;;;;;5011914;28;20737;-66
2022/03/27 09:14:31;;;;;;;20.20;16.70;;;21.90;49.70;;;;;;5009350;28;20522;-65
2022/03/27 09:17:07;;;;;;;18.10;15.50;;;22.70;48.30;;;;;;5008037;28;20439;-66
2022/03/27 09:19:47;;;;;;;18.50;15.00;;;23.90;46.30;;;;;;5011032;28;20469;-66
2022/03/27 09:22:21;;;;;;;19.30;16.87;;;24.80;44.20;;;;;;5006182;28;20465;-66
2022/03/27 09:25:03;;;;;;;23.30;17.00;;;25.20;41.80;;;;;;5011415;28;20432;-66
2022/03/27 09:27:36;;;;;;;20.27;17.37;;;25.40;41.40;;;;;;5012535;28;20425;-70
2022/03/27 09:30:08;;;;;;;22.40;19.27;;;26.20;39.50;;;;;;5011064;28;20434;-66
2022/03/27 09:32:36;;;;;;;20.03;17.83;;;26.00;39.60;;;;;;5008043;28;20457;-66
2022/03/27 09:35:08;;;;;;;19.40;17.40;;;27.10;39.50;;;;;;5012026;28;20534;-66
2022/03/27 09:37:37;;;;;;;16.90;15.27;;;27.40;37.50;;;;;;5012529;28;20804;-66
2022/03/27 09:40:04;;;;;;;19.40;17.37;;;27.50;37.70;;;;;;5010594;28;20438;-64
2022/03/27 09:42:30;;;;;;;19.03;17.03;;;27.80;36.50;;;;;;5011022;28;20461;-64
2022/03/27 09:45:12;;;;;;;19.30;17.20;;;27.80;36.50;;;;;;5011586;28;20449;-64
2022/03/27 09:47:38;;;;;;;20.83;18.63;;;27.60;35.50;;;;;;5009890;28;20190;-66
2022/03/27 09:50:05;;;;;;;19.77;17.77;;;28.10;35.30;;;;;;5012163;28;20444;-65
2022/03/27 09:52:30;;;;;;;19.60;17.00;;;28.70;34.50;;;;;;5013003;28;20484;-65
2022/03/27 09:54:58;;;;;;;20.33;18.03;;;29.20;33.80;;;;;;5012720;28;20520;-65
2022/03/27 09:57:28;;;;;;;19.87;16.87;;;29.50;32.70;;;;;;5012689;28;20542;-65
2022/03/27 09:59:55;;;;;;;19.13;17.10;;;29.30;32.90;;;;;;5011651;28;20525;-66
2022/03/27 10:02:27;;;;;;;19.90;16.57;;;29.10;33.90;;;;;;5012138;28;20465;-65
2022/03/27 10:05:03;;;;;;;18.93;16.33;;;29.40;33.50;;;;;;5011578;28;20793;-65
2022/03/27 10:07:43;;;;;;;19.63;17.00;;;29.40;32.20;;;;;;5011877;28;20445;-64
2022/03/27 10:10:17;;;;;;;17.07;15.47;;;30.40;31.80;;;;;;5025124;28;20881;-65
2022/03/27 10:12:45;;;;;;;21.70;17.30;;;31.10;30.60;;;;;;5011991;28;20429;-66
2022/03/27 10:15:13;;;;;;;17.63;15.83;;;31.50;30.40;;;;;;5012114;28;20944;-65
2022/03/27 10:17:42;;;;;;;18.70;16.70;;;31.10;30.30;;;;;;5010964;28;20473;-67
2022/03/27 10:20:09;;;;;;;19.20;17.30;;;31.70;30.10;;;;;;5011330;28;20528;-66
2022/03/27 10:22:44;;;;;;;18.13;16.13;;;31.80;29.80;;;;;;5005655;28;20464;-65
2022/03/27 10:25:12;;;;;;;19.53;16.83;;;31.80;29.90;;;;;;5000423;28;20478;-66
2022/03/27 10:27:40;;;;;;;18.90;17.10;;;31.10;29.70;;;;;;5005526;28;20461;-66
2022/03/27 10:30:08;;;;;;;20.00;17.87;;;32.30;29.10;;;;;;5007302;28;21045;-66
2022/03/27 10:32:34;;;;;;;18.57;16.77;;;31.80;29.10;;;;;;5007835;28;20976;-65
2022/03/27 10:35:22;;;;;;;17.73;16.00;;;31.80;29.20;;;;;;5008238;28;20449;-66
2022/03/27 10:38:02;;;;;;;18.20;16.43;;;32.10;28.80;;;;;;5009462;28;20519;-66
2022/03/27 10:41:05;;;;;;;19.00;17.10;;;32.60;28.80;;;;;;5010539;28;20433;-66
2022/03/27 10:43:49;;;;;;;20.27;15.30;;;31.90;29.10;;;;;;5007810;28;20437;-66
2022/03/27 10:46:19;;;;;;;17.97;16.23;;;31.90;28.10;;;;;;5010135;28;20528;-66
2022/03/27 10:48:45;;;;;;;18.23;15.60;;;31.00;29.10;;;;;;5011434;28;20670;-66
2022/03/27 10:51:26;;;;;;;20.17;18.20;;;31.90;29.40;;;;;;5011365;28;21003;-66
2022/03/27 10:54:18;;;;;;;17.70;15.90;;;33.10;28.60;;;;;;5011038;28;20434;-66
2022/03/27 10:56:54;;;;;;;19.57;17.67;;;33.10;28.00;;;;;;5009394;28;20437;-66
2022/03/27 10:59:25;;;;;;;17.93;16.17;;;33.50;27.80;;;;;;5010068;28;20853;-66
2022/03/27 11:01:56;;;;;;;18.60;16.70;;;33.50;27.70;;;;;;5008513;28;20972;-66
2022/03/27 11:04:41;;;;;;;18.50;16.73;;;34.50;27.30;;;;;;5010032;28;20436;-66
2022/03/27 11:07:16;;;;;;;18.63;16.30;;;34.50;26.80;;;;;;5007086;28;20485;-66
2022/03/27 11:09:45;;;;;;;18.17;16.37;;;34.70;26.80;;;;;;5006396;28;20903;-66
2022/03/27 11:12:22;;;;;;;18.27;16.53;;;34.90;26.60;;;;;;5011254;28;20453;-66
2022/03/27 11:15:05;;;;;;;22.30;16.70;;;34.00;26.60;;;;;;5010534;28;20956;-66
2022/03/27 11:17:38;;;;;;;19.37;17.47;;;34.00;26.80;;;;;;5007309;28;20461;-66
2022/03/27 11:20:09;;;;;;;19.40;15.83;;;33.40;26.90;;;;;;5010894;28;20437;-67
2022/03/27 11:22:51;;;;;;;18.63;16.73;;;32.80;27.20;;;;;;5009481;28;20968;-67
2022/03/27 11:25:38;;;;;;;19.80;17.77;;;33.70;27.30;;;;;;5009325;28;20434;-66
2022/03/27 11:28:05;;;;;;;18.20;15.60;;;35.30;26.20;;;;;;5010257;28;20529;-66
2022/03/27 11:30:32;;;;;;;18.80;16.20;;;36.10;25.90;;;;;;5012517;28;20856;-67
2022/03/27 11:33:20;;;;;;;24.50;17.00;;;35.40;25.60;;;;;;5010715;28;20794;-66
2022/03/27 11:36:01;;;;;;;18.63;16.67;;;35.70;26.10;;;;;;5012700;28;20445;-66
2022/03/27 11:38:32;;;;;;;18.60;16.80;;;37.70;25.40;;;;;;5010160;28;20469;-67
2022/03/27 11:41:25;;;;;;;16.93;15.37;;;37.30;25.00;;;;;;5010568;28;20519;-66
2022/03/27 11:43:51;;;;;;;18.87;17.00;;;37.90;24.90;;;;;;5013398;28;20443;-66
2022/03/27 11:46:28;;;;;;;19.47;17.90;;;37.20;24.70;;;;;;5014934;28;21003;-66
2022/03/27 11:48:54;;;;;;;19.60;16.30;;;35.60;25.00;;;;;;5013965;28;20775;-66
2022/03/27 11:51:19;;;;;;;19.30;17.40;;;36.50;24.90;;;;;;5014620;28;20828;-66
2022/03/27 11:53:45;;;;;;;21.30;16.80;;;37.90;25.00;;;;;;5013504;28;21019;-67
2022/03/27 11:56:11;;;;;;;18.07;16.40;;;36.80;24.30;;;;;;5014906;28;20258;-67
2022/03/27 11:58:38;;;;;;;22.50;18.80;;;37.40;24.40;;;;;;5013590;28;20198;-66
2022/03/27 12:01:09;;;;;;;25.03;18.47;;;37.60;24.30;;;;;;5013810;28;20461;-66
2022/03/27 12:03:36;;;;;;;20.77;17.33;;;37.10;24.20;;;;;;5013722;28;20491;-66
2022/03/27 12:06:07;;;;;;;16.90;15.30;;;36.70;24.20;;;;;;5007556;28;20446;-66
2022/03/27 12:08:38;;;;;;;17.50;15.50;;;36.30;24.30;;;;;;5009546;28;20461;-66
2022/03/27 12:11:07;;;;;;;17.10;15.33;;;35.50;24.50;;;;;;5014335;28;20588;-66
2022/03/27 12:13:40;;;;;;;17.57;15.67;;;35.90;24.70;;;;;;5013062;28;20457;-67
2022/03/27 12:16:14;;;;;;;17.63;16.00;;;36.80;24.50;;;;;;5012004;28;20434;-66
2022/03/27 12:18:40;;;;;;;17.93;16.23;;;38.50;23.90;;;;;;5012682;28;20438;-67
2022/03/27 12:21:09;;;;;;;17.03;15.47;;;39.90;23.00;;;;;;5014170;28;20457;-64
2022/03/27 12:23:36;;;;;;;17.37;15.67;;;40.30;22.40;;;;;;5010329;28;20480;-64
2022/03/27 12:32:04;;;;;;;17.97;15.87;;;39.70;22.40;;;;;;5009834;28;20447;-64
2022/03/27 12:34:30;;;;;;;15.60;13.77;;;40.10;21.60;;;;;;5006207;28;20436;-63
2022/03/27 12:37:10;;;;;;;14.53;13.27;;;40.40;21.10;;;;;;5013392;28;20426;-65
2022/03/27 12:39:57;;;;;;;16.13;14.60;;;39.10;20.90;;;;;;5009910;28;20433;-66
2022/03/27 12:42:35;;;;;;;18.30;13.67;;;37.10;20.80;;;;;;5013252;28;20536;-66
2022/03/27 12:45:03;;;;;;;15.20;13.73;;;35.50;21.80;;;;;;5010595;28;20939;-66
2022/03/27 12:47:33;;;;;;;13.57;12.13;;;37.60;21.50;;;;;;5013045;28;20465;-66
2022/03/27 12:49:59;;;;;;;15.30;13.50;;;38.90;21.20;;;;;;5009334;28;20433;-67